createdAt,value
2019-06-20T00:01:08.623Z,8.50
2019-06-20T00:02:34.680Z,9.07
2019-06-20T00:04:00.465Z,9.33
2019-06-20T00:05:26.817Z,10.33
2019-06-20T00:06:52.488Z,8.70
2019-06-20T00:08:18.638Z,10.13
2019-06-20T00:09:44.160Z,10.00
2019-06-20T00:11:10.407Z,8.40
2019-06-20T00:12:35.902Z,8.33
2019-06-20T00:14:01.980Z,8.93
2019-06-20T00:15:27.580Z,8.60
2019-06-20T00:16:53.793Z,7.07
2019-06-20T00:18:19.290Z,9.67
2019-06-20T00:19:45.393Z,9.10
2019-06-20T00:21:10.888Z,9.20
2019-06-20T00:22:36.949Z,7.92
2019-06-20T00:24:02.699Z,7.57
2019-06-20T00:25:28.825Z,7.80
2019-06-20T00:26:54.293Z,9.80
2019-06-20T00:28:20.371Z,7.70
2019-06-20T00:29:45.840Z,9.10
2019-06-20T00:31:12.036Z,8.50
2019-06-20T00:32:37.473Z,8.83
2019-06-20T00:34:03.522Z,8.30
2019-06-20T00:35:29.023Z,10.00
2019-06-20T00:36:55.109Z,8.23
2019-06-20T00:38:20.599Z,9.30
2019-06-20T00:39:46.773Z,8.60
2019-06-20T00:41:12.235Z,8.97
2019-06-20T00:42:38.273Z,8.40
2019-06-20T00:44:03.729Z,8.40
2019-06-20T00:45:29.884Z,7.93
2019-06-20T00:46:55.359Z,8.97
2019-06-20T00:48:21.397Z,9.30
2019-06-20T00:49:46.863Z,9.47
2019-06-20T00:51:12.920Z,7.80
2019-06-20T00:52:38.403Z,8.80
2019-06-20T00:54:04.539Z,8.83
2019-06-20T00:55:30.188Z,8.77
2019-06-20T00:56:56.287Z,9.07
2019-06-20T00:58:21.785Z,8.70
2019-06-20T00:59:48.036Z,7.57
2019-06-20T01:01:13.534Z,9.33
2019-06-20T01:02:39.588Z,9.20
2019-06-20T01:04:05.035Z,8.37
2019-06-20T01:05:31.194Z,8.17
2019-06-20T01:06:56.750Z,8.27
2019-06-20T01:08:22.828Z,7.63
2019-06-20T01:09:48.295Z,7.57
2019-06-20T01:11:14.582Z,9.13
2019-06-20T01:12:40.063Z,8.63
2019-06-20T01:14:06.543Z,7.37
2019-06-20T01:15:32.092Z,8.20
2019-06-20T01:16:58.217Z,9.70
2019-06-20T01:18:23.768Z,8.30
2019-06-20T01:19:49.944Z,8.07
2019-06-20T01:21:17.017Z,8.07
2019-06-20T01:22:43.044Z,7.83
2019-06-20T01:24:08.648Z,10.43
2019-06-20T01:25:39.483Z,9.83
2019-06-20T01:27:05.055Z,7.90
2019-06-20T01:28:31.340Z,7.87
2019-06-20T01:29:57.305Z,8.00
2019-06-20T01:31:23.406Z,9.60
2019-06-20T01:32:48.884Z,8.20
2019-06-20T01:34:14.971Z,8.03
2019-06-20T01:35:40.425Z,8.30
2019-06-20T01:37:06.696Z,7.77
2019-06-20T01:38:32.196Z,8.67
2019-06-20T01:39:58.236Z,9.30
2019-06-20T01:41:23.916Z,7.83
2019-06-20T01:42:50.009Z,8.13
2019-06-20T01:44:15.491Z,8.67
2019-06-20T01:45:41.613Z,7.80
2019-06-20T01:47:07.219Z,7.83
2019-06-20T01:48:33.263Z,8.60
2019-06-20T01:49:58.746Z,8.63
2019-06-20T01:51:24.894Z,9.10
2019-06-20T01:52:50.374Z,8.20
2019-06-20T01:54:16.429Z,7.97
2019-06-20T01:55:42.572Z,8.50
2019-06-20T01:57:08.671Z,7.83
2019-06-20T01:58:34.163Z,8.57
2019-06-20T02:00:00.196Z,8.83
2019-06-20T02:01:28.679Z,8.87
2019-06-20T02:02:54.783Z,8.47
2019-06-20T02:04:20.364Z,9.05
2019-06-20T02:05:46.857Z,10.13
2019-06-20T02:07:12.644Z,8.97
2019-06-20T02:08:38.898Z,8.50
2019-06-20T02:10:05.114Z,7.37
2019-06-20T02:11:31.149Z,8.97
2019-06-20T02:12:56.744Z,8.87
2019-06-20T02:14:22.785Z,8.83
2019-06-20T02:15:48.400Z,8.50
2019-06-20T02:17:14.492Z,10.00
2019-06-20T02:18:40.092Z,9.30
2019-06-20T02:20:07.870Z,8.00
2019-06-20T02:21:33.328Z,8.10
2019-06-20T02:22:59.514Z,8.90
2019-06-20T02:24:25.112Z,8.43
2019-06-20T02:25:51.462Z,8.47
2019-06-20T02:27:16.903Z,8.90
2019-06-20T02:28:43.019Z,9.50
2019-06-20T02:30:08.689Z,8.90
2019-06-20T02:31:34.740Z,8.63
2019-06-20T02:33:00.254Z,8.90
2019-06-20T02:34:26.296Z,9.60
2019-06-20T02:35:51.881Z,8.47
2019-06-20T02:37:17.909Z,9.13
2019-06-20T02:38:43.433Z,8.57
2019-06-20T02:40:09.716Z,10.30
2019-06-20T02:41:35.612Z,9.63
2019-06-20T02:43:01.751Z,8.13
2019-06-20T02:44:30.456Z,8.77
2019-06-20T02:45:55.224Z,9.97
2019-06-20T02:47:20.688Z,7.77
2019-06-20T02:48:46.741Z,9.93
2019-06-20T02:50:13.215Z,7.60
2019-06-20T02:51:39.683Z,8.47
2019-06-20T02:53:05.739Z,9.73
2019-06-20T02:54:31.784Z,8.87
2019-06-20T02:55:57.364Z,8.00
2019-06-20T02:57:23.697Z,9.57
2019-06-20T02:58:49.204Z,7.70
2019-06-20T03:00:15.845Z,9.00
2019-06-20T03:01:41.328Z,7.43
2019-06-20T03:03:07.565Z,9.80
2019-06-20T03:04:33.093Z,9.03
2019-06-20T03:05:59.605Z,7.17
2019-06-20T03:07:25.188Z,9.67
2019-06-20T03:08:51.307Z,8.30
2019-06-20T03:10:16.978Z,8.50
2019-06-20T03:11:43.123Z,8.50
2019-06-20T03:13:09.540Z,8.03
2019-06-20T03:14:44.888Z,8.10
2019-06-20T03:16:03.098Z,7.90
2019-06-20T03:17:29.174Z,8.90
2019-06-20T03:18:54.657Z,8.50
2019-06-20T03:20:20.800Z,7.93
2019-06-20T03:21:46.360Z,8.60
2019-06-20T03:23:15.184Z,7.67
2019-06-20T03:24:40.668Z,7.40
2019-06-20T03:26:06.946Z,9.47
2019-06-20T03:27:32.459Z,9.50
2019-06-20T03:28:58.534Z,7.80
2019-06-20T03:30:24.097Z,8.30
2019-06-20T03:31:50.150Z,8.80
2019-06-20T03:33:15.910Z,8.30
2019-06-20T03:34:42.151Z,9.70
2019-06-20T03:36:07.913Z,8.53
2019-06-20T03:37:33.949Z,8.20
2019-06-20T03:38:59.568Z,8.30
2019-06-20T03:40:25.851Z,9.33
2019-06-20T03:41:51.319Z,8.80
2019-06-20T03:43:17.458Z,7.23
2019-06-20T03:44:43.022Z,8.20
2019-06-20T03:46:09.052Z,8.63
2019-06-20T03:47:34.774Z,9.30
2019-06-20T03:49:00.935Z,9.00
2019-06-20T03:50:26.579Z,8.20
2019-06-20T03:51:52.784Z,8.93
2019-06-20T03:53:18.266Z,8.30
2019-06-20T03:54:44.391Z,8.87
2019-06-20T03:56:09.956Z,7.23
2019-06-20T03:57:36.125Z,10.47
2019-06-20T03:59:04.220Z,9.23
2019-06-20T04:00:33.903Z,9.37
2019-06-20T04:01:59.379Z,9.17
2019-06-20T04:03:25.474Z,9.00
2019-06-20T04:04:50.998Z,8.80
2019-06-20T04:06:17.220Z,8.30
2019-06-20T04:07:42.699Z,8.60
2019-06-20T04:09:08.842Z,8.53
2019-06-20T04:10:34.871Z,8.30
2019-06-20T04:12:01.038Z,8.83
2019-06-20T04:13:26.716Z,8.13
2019-06-20T04:14:52.828Z,9.33
2019-06-20T04:16:18.467Z,8.40
2019-06-20T04:17:44.536Z,9.30
2019-06-20T04:19:10.022Z,8.10
2019-06-20T04:20:36.299Z,10.13
2019-06-20T04:22:01.799Z,10.07
2019-06-20T04:23:27.834Z,9.50
2019-06-20T04:24:53.370Z,8.67
2019-06-20T04:26:19.456Z,8.37
2019-06-20T04:27:44.977Z,8.67
2019-06-20T04:29:10.965Z,9.10
2019-06-20T04:30:36.506Z,10.87
2019-06-20T04:32:02.544Z,8.87
2019-06-20T04:33:28.109Z,10.00
2019-06-20T04:34:54.200Z,9.30
2019-06-20T04:36:19.862Z,9.57
2019-06-20T04:37:45.911Z,8.30
2019-06-20T04:39:19.360Z,10.17
2019-06-20T04:40:39.124Z,8.53
2019-06-20T04:42:04.783Z,11.30
2019-06-20T04:43:30.856Z,12.27
2019-06-20T04:44:57.881Z,9.00
2019-06-20T04:46:35.416Z,8.40
2019-06-20T04:48:00.915Z,8.73
2019-06-20T04:49:27.012Z,8.80
2019-06-20T04:50:52.531Z,9.13
2019-06-20T04:52:18.573Z,9.63
2019-06-20T04:53:44.153Z,9.50
2019-06-20T04:55:10.459Z,9.13
2019-06-20T04:56:36.065Z,9.97
2019-06-20T04:58:02.164Z,10.27
2019-06-20T04:59:27.619Z,9.23
2019-06-20T05:00:53.805Z,9.27
2019-06-20T05:02:20.898Z,9.53
2019-06-20T05:03:46.976Z,9.87
2019-06-20T05:05:12.591Z,10.80
2019-06-20T05:06:38.720Z,9.87
2019-06-20T05:08:04.404Z,9.43
2019-06-20T05:09:30.473Z,10.40
2019-06-20T05:10:56.056Z,9.80
2019-06-20T05:12:22.590Z,10.67
2019-06-20T05:13:48.073Z,10.47
2019-06-20T05:15:15.670Z,9.13
2019-06-20T05:16:41.176Z,11.10
2019-06-20T05:18:07.336Z,9.80
2019-06-20T05:19:32.816Z,10.80
2019-06-20T05:20:58.982Z,10.70
2019-06-20T05:22:24.491Z,11.47
2019-06-20T05:23:50.559Z,11.40
2019-06-20T05:25:16.237Z,11.20
2019-06-20T05:26:42.348Z,11.23
2019-06-20T05:28:07.884Z,10.50
2019-06-20T05:29:34.060Z,10.77
2019-06-20T05:30:59.543Z,11.03
2019-06-20T05:32:25.639Z,9.90
2019-06-20T05:33:51.120Z,11.20
2019-06-20T05:35:17.299Z,11.40
2019-06-20T05:36:42.827Z,10.40
2019-06-20T05:38:08.898Z,12.27
2019-06-20T05:39:34.423Z,11.17
2019-06-20T05:41:00.623Z,11.10
2019-06-20T05:42:26.560Z,12.30
2019-06-20T05:43:52.644Z,12.37
2019-06-20T05:45:18.745Z,12.40
2019-06-20T05:46:44.935Z,14.40
2019-06-20T05:48:10.439Z,14.10
2019-06-20T05:49:37.116Z,13.57
2019-06-20T05:51:02.789Z,15.43
2019-06-20T05:52:29.147Z,14.10
2019-06-20T05:53:54.756Z,13.53
2019-06-20T05:55:20.976Z,14.53
2019-06-20T05:56:46.490Z,13.10
2019-06-20T05:58:12.584Z,14.10
2019-06-20T05:59:38.170Z,12.47
2019-06-20T06:01:04.351Z,13.60
2019-06-20T06:02:29.889Z,13.73
2019-06-20T06:03:56.053Z,15.77
2019-06-20T06:05:21.898Z,15.30
2019-06-20T06:06:48.218Z,12.97
2019-06-20T06:08:13.679Z,15.50
2019-06-20T06:09:39.740Z,15.57
2019-06-20T06:11:06.242Z,16.30
2019-06-20T06:12:32.485Z,15.00
2019-06-20T06:13:57.981Z,14.67
2019-06-20T06:15:24.877Z,15.27
2019-06-20T06:16:50.504Z,14.97
2019-06-20T06:18:16.578Z,16.33
2019-06-20T06:19:42.084Z,16.70
2019-06-20T06:21:10.245Z,16.47
2019-06-20T06:22:35.929Z,15.80
2019-06-20T06:24:02.179Z,16.27
2019-06-20T06:25:27.733Z,15.10
2019-06-20T06:26:53.925Z,16.17
2019-06-20T06:28:19.419Z,15.03
2019-06-20T06:29:45.509Z,17.00
2019-06-20T06:31:11.103Z,16.20
2019-06-20T06:32:40.342Z,15.63
2019-06-20T06:34:04.660Z,17.43
2019-06-20T06:35:30.948Z,18.20
2019-06-20T06:36:56.577Z,16.77
2019-06-20T06:38:22.677Z,15.40
2019-06-20T06:39:48.248Z,15.10
2019-06-20T06:41:14.320Z,15.87
2019-06-20T06:42:40.140Z,15.90
2019-06-20T06:44:08.451Z,15.60
2019-06-20T06:45:34.155Z,15.60
2019-06-20T06:47:01.763Z,16.70
2019-06-20T06:48:27.345Z,17.57
2019-06-20T06:49:53.451Z,18.80
2019-06-20T06:51:19.162Z,15.87
2019-06-20T06:52:45.211Z,16.23
2019-06-20T06:54:10.709Z,16.30
2019-06-20T06:55:38.112Z,15.23
2019-06-20T06:57:03.699Z,17.00
2019-06-20T06:58:29.808Z,16.33
2019-06-20T06:59:55.286Z,15.73
2019-06-20T07:01:21.493Z,15.10
2019-06-20T07:02:46.983Z,17.83
2019-06-20T07:04:13.183Z,16.00
2019-06-20T07:05:38.799Z,15.63
2019-06-20T07:07:04.858Z,17.20
2019-06-20T07:08:30.435Z,15.90
2019-06-20T07:09:56.609Z,15.90
2019-06-20T07:11:22.192Z,16.10
2019-06-20T07:12:48.381Z,15.90
2019-06-20T07:14:13.907Z,14.73
2019-06-20T07:15:39.989Z,16.03
2019-06-20T07:17:05.720Z,14.53
2019-06-20T07:18:31.935Z,15.60
2019-06-20T07:19:57.522Z,15.20
2019-06-20T07:21:23.604Z,15.63
2019-06-20T07:22:49.189Z,16.53
2019-06-20T07:24:15.279Z,16.63
2019-06-20T07:25:40.736Z,16.90
2019-06-20T07:27:06.899Z,17.53
2019-06-20T07:28:32.436Z,17.57
2019-06-20T07:29:58.535Z,16.77
2019-06-20T07:31:24.028Z,15.60
2019-06-20T07:32:50.099Z,15.90
2019-06-20T07:34:15.730Z,14.20
2019-06-20T07:35:42.037Z,15.67
2019-06-20T07:37:07.662Z,16.00
2019-06-20T07:38:33.723Z,14.90
2019-06-20T07:39:59.259Z,14.67
2019-06-20T07:41:25.425Z,16.30
2019-06-20T07:42:50.919Z,14.13
2019-06-20T07:44:16.997Z,15.60
2019-06-20T07:45:42.478Z,13.83
2019-06-20T07:47:17.447Z,14.50
2019-06-20T07:48:35.619Z,14.50
2019-06-20T07:50:01.695Z,16.50
2019-06-20T07:51:27.192Z,15.73
2019-06-20T07:53:01.818Z,14.70
2019-06-20T07:54:20.391Z,15.37
2019-06-20T07:55:46.596Z,16.20
2019-06-20T07:57:12.082Z,13.50
2019-06-20T07:58:38.152Z,15.10
2019-06-20T08:00:03.752Z,16.87
2019-06-20T08:01:29.949Z,16.67
2019-06-20T08:02:55.468Z,16.33
2019-06-20T08:04:21.635Z,15.40
2019-06-20T08:05:47.277Z,14.63
2019-06-20T08:07:13.313Z,15.47
2019-06-20T08:08:38.870Z,15.23
2019-06-20T08:10:05.787Z,14.80
2019-06-20T08:11:31.295Z,16.70
2019-06-20T08:12:57.434Z,15.73
2019-06-20T08:14:22.879Z,15.63
2019-06-20T08:15:49.053Z,16.73
2019-06-20T08:17:14.639Z,15.80
2019-06-20T08:18:40.677Z,17.60
2019-06-20T08:20:09.130Z,16.77
2019-06-20T08:21:35.314Z,16.60
2019-06-20T08:23:00.811Z,17.73
2019-06-20T08:24:26.865Z,17.40
2019-06-20T08:25:52.544Z,19.47
2019-06-20T08:27:19.688Z,18.70
2019-06-20T08:28:45.779Z,19.80
2019-06-20T08:30:12.107Z,19.60
2019-06-20T08:31:38.491Z,19.03
2019-06-20T08:33:11.228Z,20.12
2019-06-20T08:34:33.892Z,20.17
2019-06-20T08:36:00.502Z,18.33
2019-06-20T08:37:26.822Z,17.60
2019-06-20T08:38:52.613Z,18.00
2019-06-20T08:40:21.144Z,19.17
2019-06-20T08:41:46.744Z,18.47
2019-06-20T08:43:13.443Z,20.00
2019-06-20T08:44:39.129Z,19.27
2019-06-20T08:46:10.095Z,21.00
2019-06-20T08:47:32.724Z,20.73
2019-06-20T08:48:59.516Z,22.10
2019-06-20T08:50:26.168Z,21.43
2019-06-20T08:51:52.723Z,23.07
2019-06-20T08:53:18.475Z,20.30
2019-06-20T08:54:44.572Z,20.00
2019-06-20T08:56:10.207Z,19.70
2019-06-20T08:57:36.493Z,19.07
2019-06-20T08:59:02.622Z,22.47
2019-06-20T09:00:29.976Z,20.10
2019-06-20T09:01:58.044Z,20.67
2019-06-20T09:03:23.101Z,20.23
2019-06-20T09:04:48.783Z,19.53
2019-06-20T09:06:14.994Z,19.90
2019-06-20T09:07:41.827Z,19.23
2019-06-20T09:09:09.885Z,20.87
2019-06-20T09:10:38.679Z,21.27
2019-06-20T09:12:05.170Z,21.30
2019-06-20T09:13:30.818Z,20.00
2019-06-20T09:14:57.232Z,20.47
2019-06-20T09:16:24.708Z,18.97
2019-06-20T09:17:52.938Z,18.53
2019-06-20T09:19:17.823Z,17.87
2019-06-20T09:20:44.099Z,18.70
2019-06-20T09:22:09.655Z,18.40
2019-06-20T09:23:35.858Z,18.73
2019-06-20T09:25:02.940Z,18.23
2019-06-20T09:26:29.176Z,15.97
2019-06-20T09:27:55.930Z,16.43
2019-06-20T09:29:22.237Z,15.90
2019-06-20T09:30:47.841Z,16.77
2019-06-20T09:32:14.261Z,16.47
2019-06-20T09:33:39.736Z,14.13
2019-06-20T09:35:06.733Z,14.50
2019-06-20T09:36:32.405Z,14.33
2019-06-20T09:37:59.346Z,13.60
2019-06-20T09:39:24.969Z,13.27
2019-06-20T09:40:51.924Z,14.57
2019-06-20T09:42:18.240Z,15.20
2019-06-20T09:43:44.337Z,15.00
2019-06-20T09:45:10.464Z,13.30
2019-06-20T09:46:36.567Z,14.73
2019-06-20T09:48:02.668Z,14.33
2019-06-20T09:49:28.988Z,14.17
2019-06-20T09:50:54.554Z,13.53
2019-06-20T09:52:20.676Z,13.77
2019-06-20T09:53:48.398Z,12.17
2019-06-20T09:55:14.998Z,12.93
2019-06-20T09:56:40.615Z,11.13
2019-06-20T09:58:07.127Z,10.30
2019-06-20T09:59:32.791Z,11.87
2019-06-20T10:00:59.103Z,10.70
2019-06-20T10:02:24.629Z,11.47
2019-06-20T10:03:50.671Z,10.70
2019-06-20T10:05:16.259Z,9.60
2019-06-20T10:06:42.424Z,9.70
2019-06-20T10:08:08.156Z,10.33
2019-06-20T10:09:34.182Z,11.47
2019-06-20T10:10:59.684Z,9.87
2019-06-20T10:12:25.751Z,8.47
2019-06-20T10:13:52.225Z,10.43
2019-06-20T10:15:24.115Z,8.50
2019-06-20T10:16:51.285Z,8.17
2019-06-20T10:18:17.319Z,8.73
2019-06-20T10:19:42.804Z,8.33
2019-06-20T10:21:08.982Z,10.97
2019-06-20T10:22:34.455Z,8.23
2019-06-20T10:24:00.571Z,7.67
2019-06-20T10:25:26.273Z,8.77
2019-06-20T10:26:53.324Z,8.27
2019-06-20T10:28:20.142Z,8.10
2019-06-20T10:29:47.478Z,9.27
2019-06-20T10:31:13.385Z,8.00
2019-06-20T10:32:39.472Z,7.83
2019-06-20T10:34:05.226Z,7.17
2019-06-20T10:35:31.322Z,7.70
2019-06-20T10:36:57.116Z,9.33
2019-06-20T10:38:23.386Z,10.00
2019-06-20T10:39:49.954Z,8.47
2019-06-20T10:41:16.192Z,8.50
2019-06-20T10:42:41.851Z,8.13
2019-06-20T10:44:08.220Z,8.33
2019-06-20T10:45:34.718Z,8.27
2019-06-20T10:47:00.868Z,8.03
2019-06-20T10:48:26.405Z,7.70
2019-06-20T10:49:52.491Z,8.57
2019-06-20T10:51:55.157Z,9.10
2019-06-20T10:53:20.741Z,7.70
2019-06-20T10:54:47.097Z,8.30
2019-06-20T10:56:12.821Z,8.00
2019-06-20T10:57:41.246Z,8.30
2019-06-20T10:59:06.400Z,8.83
2019-06-20T11:00:33.856Z,8.47
2019-06-20T11:01:59.324Z,7.93
2019-06-20T11:03:25.387Z,9.10
2019-06-20T11:04:50.904Z,9.93
2019-06-20T11:06:16.968Z,8.70
2019-06-20T11:07:43.792Z,8.23
2019-06-20T11:09:10.904Z,8.73
2019-06-20T11:10:37.013Z,8.90
2019-06-20T11:12:03.084Z,10.13
2019-06-20T11:13:28.568Z,9.07
2019-06-20T11:14:54.762Z,8.93
2019-06-20T11:16:20.438Z,8.43
2019-06-20T11:17:46.712Z,8.50
2019-06-20T11:19:12.453Z,8.73
2019-06-20T11:20:39.482Z,9.20
2019-06-20T11:22:05.822Z,7.30
2019-06-20T11:23:31.871Z,9.23
2019-06-20T11:24:57.389Z,7.50
2019-06-20T11:26:23.511Z,9.07
2019-06-20T11:27:49.126Z,7.27
2019-06-20T11:29:15.323Z,7.57
2019-06-20T11:30:52.650Z,9.17
2019-06-20T11:32:08.679Z,9.63
2019-06-20T11:33:36.578Z,8.10
2019-06-20T11:35:02.110Z,8.10
2019-06-20T11:36:27.584Z,8.20
2019-06-20T11:37:54.083Z,7.17
2019-06-20T11:39:19.668Z,7.90
2019-06-20T11:40:45.156Z,7.47
2019-06-20T11:42:10.662Z,8.27
2019-06-20T11:43:38.126Z,8.33
2019-06-20T11:45:04.255Z,9.20
2019-06-20T11:46:30.406Z,7.27
2019-06-20T11:47:55.991Z,8.80
2019-06-20T11:49:22.072Z,8.50
2019-06-20T11:50:47.696Z,6.80
2019-06-20T11:52:13.827Z,8.40
2019-06-20T11:53:40.603Z,7.83
2019-06-20T11:55:08.101Z,7.00
2019-06-20T11:56:33.690Z,8.83
2019-06-20T11:57:59.735Z,8.57
2019-06-20T11:59:25.259Z,8.13
2019-06-20T12:01:03.068Z,7.37
2019-06-20T12:02:18.604Z,8.50
2019-06-20T12:03:44.704Z,6.70
2019-06-20T12:05:10.317Z,9.83
2019-06-20T12:06:36.349Z,8.50
2019-06-20T12:08:01.911Z,8.23
2019-06-20T12:09:27.985Z,8.00
2019-06-20T12:10:53.513Z,7.00
2019-06-20T12:12:19.568Z,8.57
2019-06-20T12:13:46.406Z,8.47
2019-06-20T12:15:13.492Z,8.03
2019-06-20T12:16:40.507Z,7.87
2019-06-20T12:18:07.073Z,7.60
2019-06-20T12:19:32.630Z,7.80
2019-06-20T12:20:58.732Z,8.67
2019-06-20T12:22:26.380Z,7.20
2019-06-20T12:23:52.403Z,7.70
2019-06-20T12:25:18.570Z,7.50
2019-06-20T12:26:44.671Z,7.90
2019-06-20T12:28:10.160Z,8.43
2019-06-20T12:29:36.204Z,8.33
2019-06-20T12:31:01.894Z,8.27
2019-06-20T12:32:28.019Z,8.83
2019-06-20T12:33:53.479Z,8.33
2019-06-20T12:35:20.481Z,8.07
2019-06-20T12:36:46.630Z,9.03
2019-06-20T12:38:15.166Z,8.80
2019-06-20T12:39:40.409Z,8.50
2019-06-20T12:41:06.814Z,8.50
2019-06-20T12:42:32.326Z,7.80
2019-06-20T12:43:58.396Z,8.40
2019-06-20T12:45:23.955Z,7.97
2019-06-20T12:46:50.024Z,7.70
2019-06-20T12:48:15.586Z,10.23
2019-06-20T12:49:41.815Z,6.90
2019-06-20T12:51:07.434Z,8.90
2019-06-20T12:52:33.561Z,8.77
2019-06-20T12:53:59.064Z,7.50
2019-06-20T12:55:25.105Z,7.00
2019-06-20T12:56:50.749Z,6.60
2019-06-20T12:58:16.827Z,7.37
2019-06-20T12:59:42.712Z,5.50
2019-06-20T13:01:09.265Z,7.33
2019-06-20T13:02:36.381Z,6.63
2019-06-20T13:04:02.473Z,6.00
2019-06-20T13:05:28.153Z,7.27
2019-06-20T13:06:54.355Z,6.33
2019-06-20T13:08:19.865Z,6.37
2019-06-20T13:09:46.342Z,6.83
2019-06-20T13:11:11.983Z,6.37
2019-06-20T13:12:38.168Z,6.20
2019-06-20T13:14:03.885Z,7.20
2019-06-20T13:15:30.037Z,6.80
2019-06-20T13:16:55.636Z,6.00
2019-06-20T13:18:21.872Z,7.13
2019-06-20T13:19:48.539Z,5.50
2019-06-20T13:21:14.775Z,6.47
2019-06-20T13:22:41.369Z,6.20
2019-06-20T13:24:08.035Z,5.63
2019-06-20T13:25:33.590Z,6.50
2019-06-20T13:26:59.673Z,6.53
2019-06-20T13:28:25.147Z,6.47
2019-06-20T13:29:51.256Z,6.53
2019-06-20T13:31:16.698Z,6.10
2019-06-20T13:32:43.829Z,6.87
2019-06-20T13:34:10.530Z,5.27
2019-06-20T13:35:36.586Z,5.40
2019-06-20T13:37:02.340Z,5.50
2019-06-20T13:38:36.515Z,5.20
2019-06-20T13:40:00.448Z,4.57
2019-06-20T13:41:26.644Z,5.70
2019-06-20T13:42:54.624Z,5.40
2019-06-20T13:44:20.007Z,4.50
2019-06-20T13:45:47.174Z,5.17
2019-06-20T13:47:13.293Z,4.53
2019-06-20T13:48:38.922Z,5.50
2019-06-20T13:50:07.453Z,5.70
2019-06-20T13:51:33.063Z,5.63
2019-06-20T13:52:59.228Z,5.03
2019-06-20T13:54:24.771Z,4.83
2019-06-20T13:55:50.932Z,4.60
2019-06-20T13:57:16.426Z,5.60
2019-06-20T13:58:42.488Z,5.33
2019-06-20T14:00:08.893Z,4.60
2019-06-20T14:01:34.973Z,4.30
2019-06-20T14:03:00.501Z,5.87
2019-06-20T14:04:26.605Z,3.50
2019-06-20T14:05:53.614Z,5.10
2019-06-20T14:07:20.008Z,5.90
2019-06-20T14:08:46.019Z,4.47
2019-06-20T14:10:12.859Z,4.17
2019-06-20T14:11:38.327Z,4.57
2019-06-20T14:13:18.345Z,4.40
2019-06-20T14:14:31.664Z,4.80
2019-06-20T14:15:57.762Z,5.87
2019-06-20T14:17:23.274Z,5.60
2019-06-20T14:18:50.301Z,5.43
2019-06-20T14:20:16.583Z,4.63
2019-06-20T14:21:43.770Z,3.47
2019-06-20T14:23:09.613Z,3.73
2019-06-20T14:24:35.726Z,4.60
2019-06-20T14:26:01.335Z,4.33
2019-06-20T14:27:27.437Z,4.40
2019-06-20T14:28:52.906Z,4.10
2019-06-20T14:30:19.359Z,4.03
2019-06-20T14:31:45.549Z,4.03
2019-06-20T14:33:11.712Z,3.97
2019-06-20T14:34:37.219Z,5.17
2019-06-20T14:36:03.377Z,4.23
2019-06-20T14:37:28.852Z,3.50
2019-06-20T14:38:55.171Z,4.13
2019-06-20T14:40:20.999Z,5.17
2019-06-20T14:41:47.028Z,4.57
2019-06-20T14:43:12.606Z,3.90
2019-06-20T14:44:38.785Z,5.40
2019-06-20T14:46:04.420Z,5.00
2019-06-20T14:47:30.574Z,3.80
2019-06-20T14:48:56.073Z,4.40
2019-06-20T14:50:22.916Z,4.50
2019-06-20T14:51:48.569Z,4.83
2019-06-20T14:53:15.175Z,4.80
2019-06-20T14:54:40.689Z,4.17
2019-06-20T14:56:06.896Z,4.10
2019-06-20T14:57:32.375Z,4.60
2019-06-20T14:59:00.273Z,4.07
2019-06-20T15:00:26.622Z,4.13
2019-06-20T15:01:53.321Z,4.17
2019-06-20T15:03:19.069Z,5.40
2019-06-20T15:04:46.236Z,4.57
2019-06-20T15:06:12.177Z,4.17
2019-06-20T15:07:38.339Z,3.70
2019-06-20T15:09:06.093Z,3.73
2019-06-20T15:10:32.121Z,3.73
2019-06-20T15:11:57.605Z,4.90
2019-06-20T15:13:23.674Z,3.27
2019-06-20T15:14:49.797Z,3.53
2019-06-20T15:16:16.875Z,3.67
2019-06-20T15:17:43.321Z,4.20
2019-06-20T15:19:09.940Z,3.23
2019-06-20T15:20:35.540Z,3.87
2019-06-20T15:22:02.018Z,4.07
2019-06-20T15:23:27.532Z,3.90
2019-06-20T15:24:55.281Z,3.83
2019-06-20T15:26:20.889Z,4.37
2019-06-20T15:27:47.952Z,4.07
2019-06-20T15:29:14.178Z,3.60
2019-06-20T15:30:40.279Z,3.83
2019-06-20T15:32:05.912Z,3.33
2019-06-20T15:33:31.960Z,4.43
2019-06-20T15:35:03.330Z,4.13
2019-06-20T15:36:29.387Z,4.97
2019-06-20T15:37:55.596Z,4.10
2019-06-20T15:39:21.913Z,3.33
2019-06-20T15:40:49.361Z,3.70
2019-06-20T15:42:15.635Z,3.73
2019-06-20T15:43:41.246Z,4.07
2019-06-20T15:45:08.003Z,3.77
2019-06-20T15:46:33.452Z,4.20
2019-06-20T15:47:59.585Z,4.60
2019-06-20T15:49:25.160Z,3.90
2019-06-20T15:50:51.253Z,3.63
2019-06-20T15:52:16.744Z,4.60
2019-06-20T15:53:42.792Z,4.23
2019-06-20T15:55:08.485Z,4.00
2019-06-20T15:56:34.616Z,4.63
2019-06-20T15:58:00.246Z,4.57
2019-06-20T15:59:26.301Z,8.53
2019-06-20T16:00:51.785Z,76.70
2019-06-20T16:02:17.848Z,22.40
2019-06-20T16:03:43.445Z,45.53
2019-06-20T16:05:10.048Z,46.47
2019-06-20T16:06:35.654Z,45.20
2019-06-20T16:08:01.707Z,14.20
2019-06-20T16:09:27.248Z,8.90
2019-06-20T16:10:53.340Z,13.20
2019-06-20T16:12:18.946Z,6.20
2019-06-20T16:13:45.087Z,17.10
2019-06-20T16:15:11.590Z,7.17
2019-06-20T16:16:37.672Z,7.53
2019-06-20T16:18:03.621Z,8.53
2019-06-20T16:19:29.703Z,6.60
2019-06-20T16:20:55.182Z,6.70
2019-06-20T16:22:21.275Z,4.53
2019-06-20T16:23:47.561Z,4.47
2019-06-20T16:25:14.033Z,4.80
2019-06-20T16:26:39.681Z,4.20
2019-06-20T16:28:06.514Z,3.97
2019-06-20T16:29:31.991Z,4.73
2019-06-20T16:31:08.444Z,4.20
2019-06-20T16:32:25.180Z,4.83
2019-06-20T16:33:51.293Z,4.70
2019-06-20T16:35:18.126Z,4.70
2019-06-20T16:36:44.981Z,3.50
2019-06-20T16:38:10.479Z,7.63
2019-06-20T16:39:36.533Z,6.20
2019-06-20T16:41:02.055Z,4.10
2019-06-20T16:42:28.151Z,4.17
2019-06-20T16:43:53.719Z,4.80
2019-06-20T16:45:20.404Z,3.83
2019-06-20T16:46:46.108Z,3.90
2019-06-20T16:48:12.381Z,3.87
2019-06-20T16:49:38.053Z,3.80
2019-06-20T16:51:04.143Z,3.60
2019-06-20T16:52:29.600Z,4.70
2019-06-20T16:53:55.672Z,2.80
2019-06-20T16:55:21.217Z,3.13
2019-06-20T16:56:47.312Z,3.50
2019-06-20T16:58:12.826Z,3.97
2019-06-20T16:59:38.868Z,3.50
2019-06-20T17:01:04.428Z,2.77
2019-06-20T17:02:30.479Z,4.50
2019-06-20T17:03:56.006Z,3.70
2019-06-20T17:05:22.452Z,4.13
2019-06-20T17:06:47.960Z,3.60
2019-06-20T17:08:14.149Z,4.57
2019-06-20T17:09:39.599Z,3.07
2019-06-20T17:11:05.921Z,2.87
2019-06-20T17:12:31.601Z,3.43
2019-06-20T17:13:57.678Z,3.90
2019-06-20T17:15:23.473Z,3.53
2019-06-20T17:16:49.548Z,2.20
2019-06-20T17:18:15.506Z,3.07
2019-06-20T17:19:42.317Z,3.37
2019-06-20T17:21:07.825Z,2.83
2019-06-20T17:22:33.949Z,3.70
2019-06-20T17:23:59.564Z,3.37
2019-06-20T17:25:25.706Z,3.53
2019-06-20T17:26:51.192Z,3.03
2019-06-20T17:28:17.435Z,3.50
2019-06-20T17:29:42.867Z,2.07
2019-06-20T17:31:08.940Z,3.00
2019-06-20T17:32:34.470Z,3.53
2019-06-20T17:34:00.505Z,4.33
2019-06-20T17:35:26.156Z,2.47
2019-06-20T17:36:52.239Z,2.43
2019-06-20T17:38:17.822Z,3.50
2019-06-20T17:39:43.973Z,3.70
2019-06-20T17:41:09.449Z,2.50
2019-06-20T17:42:35.722Z,3.20
2019-06-20T17:44:01.186Z,27.73
2019-06-20T17:45:28.753Z,25.80
2019-06-20T17:46:54.412Z,17.70
2019-06-20T17:48:20.625Z,24.00
2019-06-20T17:49:46.072Z,12.27
2019-06-20T17:51:12.343Z,12.97
2019-06-20T17:52:37.930Z,7.57
2019-06-20T17:54:03.976Z,11.47
2019-06-20T17:55:29.473Z,7.40
2019-06-20T17:56:55.671Z,8.50
2019-06-20T17:58:21.179Z,9.33
2019-06-20T17:59:47.332Z,9.77
2019-06-20T18:01:12.817Z,7.23
2019-06-20T18:02:38.930Z,8.00
2019-06-20T18:04:13.337Z,4.60
2019-06-20T18:05:32.293Z,5.83
2019-06-20T18:06:57.853Z,4.80
2019-06-20T18:08:23.976Z,6.75
2019-06-20T18:09:52.700Z,13.30
2019-06-20T18:11:17.231Z,6.97
2019-06-20T18:12:42.714Z,5.67
2019-06-20T18:14:08.921Z,4.53
2019-06-20T18:15:34.386Z,5.10
2019-06-20T18:17:00.537Z,4.77
2019-06-20T18:18:26.136Z,10.40
2019-06-20T18:19:52.185Z,5.40
2019-06-20T18:21:17.647Z,5.83
2019-06-20T18:22:43.730Z,6.07
2019-06-20T18:24:09.393Z,5.90
2019-06-20T18:25:35.524Z,8.50
2019-06-20T18:27:01.024Z,5.70
2019-06-20T18:28:27.101Z,4.03
2019-06-20T18:29:52.574Z,6.10
2019-06-20T18:31:18.608Z,10.03
2019-06-20T18:32:44.068Z,3.67
2019-06-20T18:34:10.149Z,5.87
2019-06-20T18:35:35.629Z,5.20
2019-06-20T18:37:01.706Z,5.47
2019-06-20T18:38:27.320Z,3.90
2019-06-20T18:39:53.395Z,3.30
2019-06-20T18:41:18.877Z,4.03
2019-06-20T18:42:44.933Z,4.90
2019-06-20T18:44:10.443Z,4.20
2019-06-20T18:45:36.724Z,4.57
2019-06-20T18:47:02.199Z,6.90
2019-06-20T18:48:28.277Z,22.53
2019-06-20T18:49:53.836Z,10.53
2019-06-20T18:51:19.931Z,12.07
2019-06-20T18:52:52.173Z,8.20
2019-06-20T18:54:13.080Z,7.23
2019-06-20T18:55:38.687Z,7.87